createdAt,value
2023-02-12T00:00:54.216Z,4.68
2023-02-12T00:03:47.579Z,4.68
2023-02-12T00:06:19.973Z,4.67
2023-02-12T00:08:55.085Z,4.64
2023-02-12T00:11:28.843Z,4.61
2023-02-12T00:14:03.534Z,4.61
2023-02-12T00:16:35.871Z,4.64
2023-02-12T00:19:08.273Z,4.66
2023-02-12T00:21:41.098Z,4.66
2023-02-12T00:24:13.480Z,4.67
2023-02-12T00:26:45.896Z,4.67
2023-02-12T00:29:20.112Z,4.64
2023-02-12T00:31:52.534Z,4.58
2023-02-12T00:34:25.095Z,4.55
2023-02-12T00:36:57.234Z,4.53
2023-02-12T00:39:29.823Z,4.54
2023-02-12T00:42:02.318Z,4.54
2023-02-12T00:44:35.242Z,4.55
2023-02-12T00:47:08.750Z,4.57
2023-02-12T00:49:41.265Z,4.56
2023-02-12T00:52:13.630Z,4.58
2023-02-12T00:54:45.865Z,4.60
2023-02-12T00:57:19.875Z,4.62
2023-02-12T00:59:52.208Z,4.63
2023-02-12T01:02:24.559Z,4.63
2023-02-12T01:04:57.089Z,4.61
2023-02-12T01:07:29.827Z,4.59
2023-02-12T01:10:02.969Z,4.57
2023-02-12T01:12:35.873Z,4.57
2023-02-12T01:15:10.743Z,4.57
2023-02-12T01:17:43.867Z,4.59
2023-02-12T01:20:20.812Z,4.64
2023-02-12T01:22:53.807Z,4.66
2023-02-12T01:25:26.935Z,4.76
2023-02-12T01:28:01.431Z,4.84
2023-02-12T01:30:34.133Z,4.93
2023-02-12T01:33:06.575Z,5.01
2023-02-12T01:35:40.480Z,4.99
2023-02-12T01:38:12.865Z,4.94
2023-02-12T01:40:45.161Z,4.90
2023-02-12T01:43:17.805Z,4.81
2023-02-12T01:45:55.107Z,4.78
2023-02-12T01:48:31.214Z,4.84
2023-02-12T01:51:05.629Z,4.88
2023-02-12T01:53:43.515Z,4.93
2023-02-12T01:56:17.117Z,4.87
2023-02-12T01:58:52.597Z,4.82
2023-02-12T02:01:28.862Z,4.82
2023-02-12T02:04:06.842Z,4.79
2023-02-12T02:06:48.852Z,4.78
2023-02-12T02:09:22.499Z,4.76
2023-02-12T02:12:12.760Z,4.80
2023-02-12T02:14:45.815Z,4.86
2023-02-12T02:17:40.813Z,4.82
2023-02-12T02:20:49.561Z,4.73
2023-02-12T02:23:41.077Z,4.67
2023-02-12T02:26:44.226Z,4.68
2023-02-12T02:29:53.810Z,4.68
2023-02-12T02:32:29.118Z,4.65
2023-02-12T02:35:07.120Z,4.66
2023-02-12T02:37:46.051Z,4.65
2023-02-12T02:40:22.421Z,4.64
2023-02-12T02:42:59.839Z,4.64
2023-02-12T02:45:40.472Z,4.64
2023-02-12T02:48:20.219Z,4.67
2023-02-12T02:50:57.754Z,4.68
2023-02-12T02:53:35.385Z,4.67
2023-02-12T02:56:13.277Z,4.67
2023-02-12T02:58:49.978Z,4.66
2023-02-12T03:01:29.788Z,4.66
2023-02-12T03:04:06.853Z,4.69
2023-02-12T03:06:45.292Z,4.77
2023-02-12T03:09:22.730Z,4.78
2023-02-12T03:12:00.933Z,4.82
2023-02-12T03:14:38.190Z,4.83
2023-02-12T03:17:15.821Z,4.85
2023-02-12T03:19:54.366Z,4.85
2023-02-12T03:22:33.117Z,4.82
2023-02-12T03:25:12.499Z,4.81
2023-02-12T03:27:48.715Z,4.86
2023-02-12T03:30:22.358Z,4.87
2023-02-12T03:33:05.392Z,4.86
2023-02-12T03:35:45.847Z,4.85
2023-02-12T03:38:29.213Z,4.86
2023-02-12T03:41:06.447Z,4.91
2023-02-12T03:43:50.495Z,4.91
2023-02-12T03:46:29.073Z,4.90
2023-02-12T03:49:06.274Z,4.87
2023-02-12T03:51:42.181Z,4.91
2023-02-12T03:54:19.978Z,4.94
2023-02-12T03:56:56.996Z,4.96
2023-02-12T03:59:30.121Z,5.04
2023-02-12T04:02:02.655Z,5.04
2023-02-12T04:04:35.484Z,5.05
2023-02-12T04:07:07.884Z,5.03
2023-02-12T04:09:40.350Z,5.05
2023-02-12T04:12:31.925Z,5.10
2023-02-12T04:15:20.770Z,5.10
2023-02-12T04:18:03.725Z,5.09
2023-02-12T04:20:49.926Z,5.17
2023-02-12T04:23:40.922Z,5.21
2023-02-12T04:26:23.619Z,5.10
2023-02-12T04:29:16.495Z,5.03
2023-02-12T04:31:54.188Z,5.05
2023-02-12T04:34:34.146Z,5.07
2023-02-12T04:37:11.708Z,5.07
2023-02-12T04:39:45.655Z,5.09
2023-02-12T04:42:18.458Z,5.09
2023-02-12T04:44:50.818Z,5.07
2023-02-12T04:47:23.798Z,5.00
2023-02-12T04:49:56.296Z,4.96
2023-02-12T04:52:29.573Z,4.97
2023-02-12T04:55:02.040Z,5.01
2023-02-12T04:57:34.342Z,5.05
2023-02-12T05:00:09.350Z,5.10
2023-02-12T05:02:42.138Z,5.12
2023-02-12T05:05:15.378Z,5.10
2023-02-12T05:07:47.692Z,5.10
2023-02-12T05:10:20.467Z,5.08
2023-02-12T05:12:54.954Z,5.08
2023-02-12T05:15:27.403Z,5.16
2023-02-12T05:17:59.724Z,5.25
2023-02-12T05:20:31.981Z,5.17
2023-02-12T05:23:04.270Z,5.04
2023-02-12T05:25:37.332Z,4.97
2023-02-12T05:28:09.649Z,4.95
2023-02-12T05:30:42.109Z,4.91
2023-02-12T05:33:14.382Z,4.88
2023-02-12T05:35:46.857Z,4.81
2023-02-12T05:38:19.422Z,4.79
2023-02-12T05:40:52.000Z,4.81
2023-02-12T05:43:24.422Z,4.75
2023-02-12T05:45:57.110Z,4.71
2023-02-12T05:48:31.062Z,4.71
2023-02-12T05:51:07.683Z,4.76
2023-02-12T05:53:41.366Z,4.78
2023-02-12T05:56:18.844Z,4.82
2023-02-12T05:58:56.029Z,4.88
2023-02-12T06:01:30.830Z,4.87
2023-02-12T06:04:04.515Z,4.86
2023-02-12T06:06:37.441Z,4.89
2023-02-12T06:09:09.627Z,4.86
2023-02-12T06:11:42.746Z,4.90
2023-02-12T06:14:18.038Z,4.86
2023-02-12T06:16:52.467Z,4.78
2023-02-12T06:19:25.542Z,4.80
2023-02-12T06:21:57.732Z,4.82
2023-02-12T06:24:30.097Z,4.83
2023-02-12T06:27:02.452Z,4.76
2023-02-12T06:29:34.851Z,4.74
2023-02-12T06:32:09.056Z,4.77
2023-02-12T06:34:41.450Z,4.80
2023-02-12T06:37:15.069Z,4.83
2023-02-12T06:39:47.458Z,4.90
2023-02-12T06:42:20.100Z,4.87
2023-02-12T06:44:53.143Z,4.85
2023-02-12T06:47:26.046Z,4.79
2023-02-12T06:49:58.461Z,4.73
2023-02-12T06:52:30.857Z,4.62
2023-02-12T06:55:03.082Z,4.59
2023-02-12T06:57:35.372Z,4.59
2023-02-12T07:00:09.963Z,4.59
2023-02-12T07:02:42.201Z,4.63
2023-02-12T07:05:14.612Z,4.57
2023-02-12T07:07:46.893Z,4.58
2023-02-12T07:10:19.843Z,4.54
2023-02-12T07:12:52.822Z,4.58
2023-02-12T07:15:25.582Z,4.62
2023-02-12T07:17:58.093Z,4.66
2023-02-12T07:20:30.760Z,4.69
2023-02-12T07:23:02.982Z,4.79
2023-02-12T07:25:35.998Z,4.84
2023-02-12T07:28:08.800Z,4.86
2023-02-12T07:30:42.783Z,4.82
2023-02-12T07:33:15.257Z,4.82
2023-02-12T07:35:47.842Z,4.89
2023-02-12T07:38:20.500Z,4.90
2023-02-12T07:40:52.682Z,4.98
2023-02-12T07:43:25.198Z,4.98
2023-02-12T07:45:57.962Z,4.98
2023-02-12T07:48:31.244Z,5.04
2023-02-12T07:51:08.978Z,5.10
2023-02-12T07:53:42.425Z,5.21
2023-02-12T07:56:17.439Z,5.33
2023-02-12T07:58:52.637Z,5.39
2023-02-12T08:01:27.636Z,5.39
2023-02-12T08:04:01.744Z,5.40
2023-02-12T08:06:36.524Z,5.52
2023-02-12T08:09:11.562Z,5.52
2023-02-12T08:11:45.429Z,5.51
2023-02-12T08:14:19.985Z,5.54
2023-02-12T08:16:53.226Z,5.59
2023-02-12T08:19:26.911Z,5.67
2023-02-12T08:21:59.834Z,5.77
2023-02-12T08:24:32.871Z,5.85
2023-02-12T08:27:06.336Z,5.92
2023-02-12T08:29:38.685Z,6.01
2023-02-12T08:32:14.249Z,6.02
2023-02-12T08:34:47.041Z,6.02
2023-02-12T08:37:19.637Z,6.03
2023-02-12T08:39:52.519Z,5.96
2023-02-12T08:42:26.002Z,5.89
2023-02-12T08:44:59.189Z,5.85
2023-02-12T08:47:31.876Z,5.80
2023-02-12T08:50:04.481Z,5.82
2023-02-12T08:52:37.936Z,5.83
2023-02-12T08:55:10.935Z,5.77
2023-02-12T08:57:45.252Z,5.73
2023-02-12T09:00:19.247Z,5.71
2023-02-12T09:02:52.694Z,5.71
2023-02-12T09:05:25.055Z,5.74
2023-02-12T09:07:57.605Z,5.77
2023-02-12T09:10:30.476Z,5.76
2023-02-12T09:13:02.867Z,5.80
2023-02-12T09:15:39.928Z,5.84
2023-02-12T09:18:12.324Z,5.85
2023-02-12T09:20:46.368Z,5.89
2023-02-12T09:23:18.643Z,5.87
2023-02-12T09:25:51.386Z,5.82
2023-02-12T09:28:24.532Z,5.82
2023-02-12T09:30:56.990Z,5.84
2023-02-12T09:33:29.637Z,5.86
2023-02-12T09:36:06.405Z,5.88
2023-02-12T09:38:39.324Z,5.90
2023-02-12T09:41:39.012Z,5.87
2023-02-12T09:44:19.050Z,5.89
2023-02-12T09:46:59.207Z,5.89
2023-02-12T09:49:49.204Z,5.88
2023-02-12T09:52:26.822Z,5.87
2023-02-12T09:54:59.819Z,5.84
2023-02-12T09:57:36.312Z,5.90
2023-02-12T10:00:12.814Z,5.92
2023-02-12T10:02:45.357Z,6.06
2023-02-12T10:05:21.991Z,6.18
2023-02-12T10:08:09.701Z,6.24
2023-02-12T10:10:53.498Z,6.27
2023-02-12T10:13:39.966Z,6.29
2023-02-12T10:16:22.054Z,6.29
2023-02-12T10:19:07.872Z,6.35
2023-02-12T10:21:56.399Z,6.34
2023-02-12T10:24:37.800Z,6.26
2023-02-12T10:27:16.714Z,6.22
2023-02-12T10:29:51.235Z,6.21
2023-02-12T10:32:31.723Z,6.24
2023-02-12T10:35:14.213Z,6.31
2023-02-12T10:37:54.213Z,6.37
2023-02-12T10:40:30.175Z,6.48
2023-02-12T10:43:04.018Z,6.62
2023-02-12T10:45:40.178Z,6.70
2023-02-12T10:48:17.461Z,6.78
2023-02-12T10:51:14.181Z,6.87
2023-02-12T10:53:48.700Z,6.93
2023-02-12T10:56:24.805Z,7.02
2023-02-12T10:58:57.545Z,7.03
2023-02-12T11:01:33.531Z,7.00
2023-02-12T11:04:20.958Z,7.05
2023-02-12T11:07:03.788Z,7.12
2023-02-12T11:09:45.746Z,7.14
2023-02-12T11:12:27.675Z,7.10
2023-02-12T11:15:02.149Z,7.20
2023-02-12T11:17:38.932Z,7.35
2023-02-12T11:20:31.796Z,7.47
2023-02-12T11:23:06.872Z,7.56
2023-02-12T11:25:40.063Z,7.50
2023-02-12T11:28:20.878Z,7.61
2023-02-12T11:30:57.026Z,7.61
2023-02-12T11:33:35.543Z,7.55
2023-02-12T11:36:18.047Z,7.54
2023-02-12T11:38:54.711Z,7.60
2023-02-12T11:41:37.423Z,7.58
2023-02-12T11:44:20.226Z,7.79
2023-02-12T11:46:56.992Z,8.05
2023-02-12T11:49:32.801Z,8.20
2023-02-12T11:52:06.877Z,8.22
2023-02-12T11:54:44.740Z,8.34
2023-02-12T11:57:40.735Z,8.26
2023-02-12T12:00:21.293Z,8.15
2023-02-12T12:03:03.941Z,8.28
2023-02-12T12:05:41.925Z,8.32
2023-02-12T12:08:29.311Z,8.30
2023-02-12T12:11:08.380Z,8.26
2023-02-12T12:13:47.715Z,8.24
2023-02-12T12:16:43.986Z,8.28
2023-02-12T12:19:39.239Z,8.32
2023-02-12T12:22:22.347Z,8.32
2023-02-12T12:24:59.851Z,8.36
2023-02-12T12:27:57.884Z,8.38
2023-02-12T12:30:42.646Z,8.42
2023-02-12T12:33:23.417Z,8.45
2023-02-12T12:36:12.121Z,8.54
2023-02-12T12:38:49.254Z,8.68
2023-02-12T12:41:34.479Z,8.75
2023-02-12T12:44:23.874Z,8.88
2023-02-12T12:47:09.267Z,8.94
2023-02-12T12:49:57.165Z,8.96
2023-02-12T12:52:47.457Z,8.93
2023-02-12T12:55:42.790Z,8.89
2023-02-12T12:58:24.780Z,8.82
2023-02-12T13:01:16.941Z,8.78
2023-02-12T13:04:15.018Z,8.70
2023-02-12T13:06:57.800Z,8.54
2023-02-12T13:09:55.792Z,8.52
2023-02-12T13:12:56.707Z,8.42
2023-02-12T13:15:40.551Z,8.19
2023-02-12T13:18:22.252Z,8.08
2023-02-12T13:21:05.689Z,7.94
2023-02-12T13:23:47.379Z,7.97
2023-02-12T13:26:30.746Z,7.97
2023-02-12T13:29:07.490Z,7.94
2023-02-12T13:31:47.325Z,7.85
2023-02-12T13:34:21.339Z,7.80
2023-02-12T13:36:53.742Z,7.96
2023-02-12T13:39:33.353Z,8.11
2023-02-12T13:42:25.590Z,8.47
2023-02-12T13:45:08.256Z,8.82
2023-02-12T13:47:50.638Z,9.44
2023-02-12T13:50:30.073Z,11.03
2023-02-12T13:53:10.342Z,11.74
2023-02-12T13:55:58.285Z,11.21
2023-02-12T13:58:42.200Z,10.83
2023-02-12T14:01:35.512Z,10.44
2023-02-12T14:04:31.706Z,10.54
2023-02-12T14:07:07.447Z,10.20
2023-02-12T14:09:45.886Z,10.16
2023-02-12T14:12:30.006Z,9.92
2023-02-12T14:15:10.940Z,9.72
2023-02-12T14:17:57.080Z,9.56
2023-02-12T14:20:31.702Z,9.32
2023-02-12T14:23:22.495Z,9.12
2023-02-12T14:26:15.775Z,8.91
2023-02-12T14:28:55.850Z,8.76
2023-02-12T14:31:37.510Z,8.61
2023-02-12T14:34:43.962Z,8.36
2023-02-12T14:37:36.015Z,8.13
2023-02-12T14:40:44.217Z,7.90
2023-02-12T14:43:58.100Z,7.64
2023-02-12T14:46:51.298Z,7.47
2023-02-12T14:49:28.072Z,7.31
2023-02-12T14:52:05.827Z,7.15
2023-02-12T14:54:45.155Z,7.14
2023-02-12T14:57:27.373Z,7.00
2023-02-12T15:00:04.445Z,6.93
2023-02-12T15:02:38.667Z,6.89
2023-02-12T15:05:22.283Z,6.88
2023-02-12T15:08:00.143Z,6.81
2023-02-12T15:10:38.409Z,6.76
2023-02-12T15:13:26.201Z,6.72
2023-02-12T15:16:03.926Z,6.68
2023-02-12T15:18:49.756Z,6.66
2023-02-12T15:21:24.915Z,6.64
2023-02-12T15:24:09.227Z,6.56
2023-02-12T15:26:45.705Z,6.51
2023-02-12T15:29:26.956Z,6.52
2023-02-12T15:32:01.868Z,6.52
2023-02-12T15:34:39.262Z,6.49
2023-02-12T15:37:19.528Z,6.45
2023-02-12T15:39:53.878Z,6.40
2023-02-12T15:42:35.201Z,6.38
2023-02-12T15:45:19.582Z,6.35
2023-02-12T15:48:06.557Z,6.23
2023-02-12T15:50:52.356Z,6.24
2023-02-12T15:53:25.770Z,6.26
2023-02-12T15:56:00.252Z,6.20
2023-02-12T15:58:38.571Z,6.12
2023-02-12T16:01:17.089Z,6.00
2023-02-12T16:03:55.124Z,5.82
2023-02-12T16:06:30.660Z,5.62
2023-02-12T16:09:08.451Z,5.45
2023-02-12T16:11:44.414Z,5.42
2023-02-12T16:14:24.767Z,5.36
2023-02-12T16:17:00.722Z,5.33
2023-02-12T16:19:37.287Z,5.29
2023-02-12T16:22:15.869Z,5.26
2023-02-12T16:24:51.575Z,5.20
2023-02-12T16:27:26.419Z,5.08
2023-02-12T16:30:01.928Z,4.93
2023-02-12T16:32:39.943Z,4.82
2023-02-12T16:35:28.806Z,4.60
2023-02-12T16:38:12.739Z,4.43
2023-02-12T16:41:04.962Z,4.30
2023-02-12T16:43:37.553Z,4.15
2023-02-12T16:46:10.665Z,4.11
2023-02-12T16:48:46.011Z,4.08
2023-02-12T16:51:29.025Z,4.01
2023-02-12T16:54:03.496Z,3.80
2023-02-12T16:56:39.126Z,3.60
2023-02-12T16:59:12.354Z,3.44
2023-02-12T17:01:57.816Z,3.32
2023-02-12T17:04:30.340Z,3.25
2023-02-12T17:07:02.859Z,3.24
2023-02-12T17:09:35.521Z,3.25
2023-02-12T17:12:08.831Z,3.26
2023-02-12T17:14:41.530Z,3.00
2023-02-12T17:17:13.752Z,2.88
2023-02-12T17:19:46.113Z,2.85
2023-02-12T17:22:23.295Z,2.82
2023-02-12T17:24:55.806Z,2.76
2023-02-12T17:27:28.249Z,2.75
2023-02-12T17:30:00.643Z,2.67
2023-02-12T17:32:32.897Z,2.68
2023-02-12T17:35:06.806Z,2.70
2023-02-12T17:37:39.381Z,2.72
2023-02-12T17:40:13.377Z,2.75
2023-02-12T17:42:45.886Z,2.67
2023-02-12T17:45:19.234Z,2.59
2023-02-12T17:47:51.609Z,2.52
2023-02-12T17:50:24.346Z,2.50
2023-02-12T17:52:56.850Z,2.42
2023-02-12T17:55:29.989Z,2.47
2023-02-12T17:58:03.500Z,2.55
2023-02-12T18:00:36.178Z,2.58
2023-02-12T18:03:08.874Z,2.46
2023-02-12T18:05:46.035Z,2.42
2023-02-12T18:08:18.638Z,2.38
2023-02-12T18:10:51.094Z,2.33
2023-02-12T18:13:23.830Z,2.19
2023-02-12T18:15:56.314Z,2.10
2023-02-12T18:18:29.289Z,2.09
2023-02-12T18:21:02.091Z,2.04
2023-02-12T18:23:34.846Z,1.99
2023-02-12T18:26:10.860Z,2.05
2023-02-12T18:28:44.218Z,2.02
2023-02-12T18:31:17.574Z,2.06
2023-02-12T18:33:50.195Z,2.08
2023-02-12T18:36:24.349Z,1.99
2023-02-12T18:38:56.864Z,1.89
2023-02-12T18:41:32.272Z,1.83
2023-02-12T18:44:05.677Z,1.85
2023-02-12T18:46:38.196Z,1.82
2023-02-12T18:49:11.130Z,1.77
2023-02-12T18:51:43.810Z,1.75
2023-02-12T18:54:16.696Z,1.73
2023-02-12T18:56:51.565Z,1.70
2023-02-12T18:59:27.237Z,1.67
2023-02-12T19:02:00.276Z,1.72
2023-02-12T19:04:33.579Z,1.69
2023-02-12T19:07:06.467Z,1.70
2023-02-12T19:09:38.975Z,1.74
2023-02-12T19:12:11.766Z,1.75
2023-02-12T19:14:44.234Z,1.69
2023-02-12T19:17:16.655Z,1.72
2023-02-12T19:19:50.660Z,1.67
2023-02-12T19:22:23.059Z,1.62
2023-02-12T19:24:55.714Z,1.61
2023-02-12T19:27:28.157Z,1.68
2023-02-12T19:30:01.034Z,1.69
2023-02-12T19:32:33.924Z,1.69
2023-02-12T19:35:06.710Z,1.57
2023-02-12T19:37:38.982Z,1.46
2023-02-12T19:40:13.189Z,1.51
2023-02-12T19:42:45.656Z,1.60
2023-02-12T19:45:18.505Z,1.63
2023-02-12T19:47:52.130Z,1.57
2023-02-12T19:50:24.598Z,1.54
2023-02-12T19:52:57.007Z,1.55
2023-02-12T19:55:29.436Z,1.56
2023-02-12T19:58:02.169Z,1.56
2023-02-12T20:00:35.219Z,1.55
2023-02-12T20:03:08.399Z,1.51
2023-02-12T20:05:46.630Z,1.48
2023-02-12T20:08:20.631Z,1.39
2023-02-12T20:10:54.004Z,1.29
2023-02-12T20:13:28.461Z,1.25
2023-02-12T20:16:05.565Z,1.20
2023-02-12T20:18:40.100Z,1.15
2023-02-12T20:21:17.028Z,1.13
2023-02-12T20:23:52.715Z,1.15
2023-02-12T20:26:26.790Z,1.20
2023-02-12T20:29:00.650Z,1.29
2023-02-12T20:31:36.018Z,1.34
2023-02-12T20:34:12.946Z,1.31
2023-02-12T20:36:47.468Z,1.46
2023-02-12T20:39:22.179Z,1.50
2023-02-12T20:41:55.476Z,1.47
2023-02-12T20:44:28.501Z,1.47
2023-02-12T20:47:01.895Z,1.48
2023-02-12T20:49:34.335Z,1.51
2023-02-12T20:52:07.346Z,1.48
2023-02-12T20:54:40.959Z,1.55
2023-02-12T20:57:13.824Z,1.60
2023-02-12T20:59:46.399Z,1.68
2023-02-12T21:02:20.000Z,1.64
2023-02-12T21:04:56.357Z,1.57
2023-02-12T21:07:29.570Z,1.60
2023-02-12T21:10:02.072Z,1.55
2023-02-12T21:12:34.618Z,1.53
2023-02-12T21:15:07.586Z,1.59
2023-02-12T21:17:40.073Z,1.54
2023-02-12T21:20:13.458Z,1.60
2023-02-12T21:22:45.785Z,1.75
2023-02-12T21:25:18.230Z,1.86
2023-02-12T21:27:50.776Z,1.94
2023-02-12T21:30:24.325Z,1.95
2023-02-12T21:32:56.947Z,1.84
2023-02-12T21:35:29.741Z,1.73
2023-02-12T21:38:02.014Z,1.71
2023-02-12T21:40:34.344Z,1.61
2023-02-12T21:43:06.543Z,1.58
2023-02-12T21:45:39.410Z,1.50
2023-02-12T21:48:11.611Z,1.47
2023-02-12T21:50:43.997Z,1.36
2023-02-12T21:53:17.349Z,1.34
2023-02-12T21:55:49.632Z,1.31
2023-02-12T21:58:22.990Z,1.32
2023-02-12T22:00:56.217Z,1.38
2023-02-12T22:03:28.717Z,1.47
2023-02-12T22:06:05.101Z,1.52
2023-02-12T22:08:35.817Z,1.45
2023-02-12T22:11:10.319Z,1.44
2023-02-12T22:13:43.323Z,1.54
2023-02-12T22:16:18.903Z,1.59
2023-02-12T22:18:53.430Z,1.52
2023-02-12T22:21:27.681Z,1.51
2023-02-12T22:24:01.962Z,1.44
2023-02-12T22:26:35.099Z,1.46
2023-02-12T22:29:09.230Z,1.55
2023-02-12T22:31:44.267Z,1.57
2023-02-12T22:34:19.108Z,1.53
2023-02-12T22:36:51.848Z,1.55
2023-02-12T22:39:29.808Z,1.60
2023-02-12T22:42:02.046Z,1.61
2023-02-12T22:44:34.352Z,1.63
2023-02-12T22:47:07.031Z,1.74
2023-02-12T22:49:39.166Z,1.83
2023-02-12T22:52:12.782Z,1.90
2023-02-12T22:54:44.995Z,1.94
2023-02-12T22:57:19.341Z,2.02
2023-02-12T22:59:51.767Z,1.94
2023-02-12T23:02:24.323Z,1.81
2023-02-12T23:04:56.523Z,1.76
2023-02-12T23:07:29.063Z,1.70
2023-02-12T23:10:01.263Z,1.72
2023-02-12T23:12:33.524Z,1.70
2023-02-12T23:15:06.517Z,1.79
2023-02-12T23:17:39.086Z,1.87
2023-02-12T23:20:13.939Z,2.00
2023-02-12T23:22:46.676Z,2.17
2023-02-12T23:25:19.595Z,2.20
2023-02-12T23:27:52.274Z,2.26
2023-02-12T23:30:24.574Z,2.32
2023-02-12T23:32:57.056Z,2.33
2023-02-12T23:35:29.634Z,2.30
2023-02-12T23:38:01.973Z,2.27
2023-02-12T23:40:34.618Z,2.31
2023-02-12T23:43:07.148Z,2.31
2023-02-12T23:45:39.749Z,2.23
2023-02-12T23:48:12.810Z,2.17
2023-02-12T23:50:49.417Z,2.15
2023-02-12T23:53:22.541Z,2.13
2023-02-12T23:55:54.946Z,2.17
2023-02-12T23:58:27.538Z,2.25
